Terminal Aerodrome Forecast
Issued by NWS Shreveport, LA

Home | Current Version | Previous Version | Text Only | Print | Product List | Glossary On
Versions: 1 2 3 4 5 6 7 8 9 10 11 12 13 14
000
FTUS44 KSHV 182322
TAFELD
TAF
KELD 182322Z 1900/1924 VRB04KT P6SM SCT040 SCT100 SCT250
      TEMPO 1909/1913 3SM BR
     FM191400 22007KT P6SM SCT015 SCT140 SCT250
     FM191600 22010KT P6SM SCT030
     FM191900 22012G18KT P6SM SCT040=

USA.gov is the U.S. government's official web portal to all federal, state and local government web resources and services.